Airfield :
LOGIN :

Register | Disclaimer

   EN    FR    IT 

 










Legend :    VFR   Marginal VFR   IFR   Intensive IFR   Very Intensive IFR
Visi :
Ceiling :
>= 8 km
>= 3000ft
5 to 8 km
1000 to 3000 ft
1500m to 5 km
500 to 1000 ft
800 to 1500m
200 to 500 ft
< 800m
< 200 ft
Symbols :   Thunderstorms  Fog  Heavy snow  Heavy precipitations  Wind > 20 kt
SIGMETs :     Misc.  Thunderstorms  Icing  Turbulence  Mountain Waves  Volcanic Ashes






- Airport Elevation : 1202 ft
- IATA code : IGS


ETSI - Ingolstadt

CURRENT METAR :
  • 031020Z 28007KT 9999 FEW065CB BKN260 25/05 Q1006 BLU+BLU+

EXPIRED METARs :
  • 030920Z 24003KT 9999 FEW060 BKN260 23/07 Q1007 BLU+BLU+
  • 030820Z 28004KT 9999 FEW120 BKN230 21/08 Q1008 BLU+BLU+

TAF TAF ETSI
Valid from the 03 at 08:00 until the 03 at 17:00 UTC


030715Z 0308/0317 26005KT 9999 NSW FEW050 SCT140 BKN250
PROB30 0313/0317 30015G30KT 7000 TSRA SCT045CB BKN080



MET'MAP, your aeronautical weather chart ! - Copyright ORBIFLY December 2007 - Disclaimer

ORBIFLY MET'MAP TEAM :

Programming & Development : Alexandra Zaïnal
Concept & original design : Baudouin d'Aumeries
Assistance for programming : Marc-Olivier Méhu
Technical & hardware support : Manuel Goepfert

Contact : metmap@orbifly.com




SOURCES & CREDITS :

   NOAA